sensor_id;sensor_type;location;lat;lon;timestamp;P1;durP1;ratioP1;P2;durP2;ratioP2
13493;SDS011;6819;50.886;4.332;2023-04-25T00:00:05;13.13;;;3.45;;
13493;SDS011;6819;50.886;4.332;2023-04-25T00:02:32;10.57;;;3.05;;
13493;SDS011;6819;50.886;4.332;2023-04-25T00:05:00;14.27;;;3.47;;
13493;SDS011;6819;50.886;4.332;2023-04-25T00:07:26;9.02;;;3.10;;
13493;SDS011;6819;50.886;4.332;2023-04-25T00:09:52;11.50;;;3.53;;
13493;SDS011;6819;50.886;4.332;2023-04-25T00:12:19;7.53;;;2.92;;
13493;SDS011;6819;50.886;4.332;2023-04-25T00:14:46;9.48;;;3.03;;
13493;SDS011;6819;50.886;4.332;2023-04-25T00:17:14;11.55;;;3.80;;
13493;SDS011;6819;50.886;4.332;2023-04-25T00:19:41;13.63;;;3.53;;
13493;SDS011;6819;50.886;4.332;2023-04-25T00:22:07;16.58;;;3.30;;
13493;SDS011;6819;50.886;4.332;2023-04-25T00:24:33;18.98;;;3.47;;
13493;SDS011;6819;50.886;4.332;2023-04-25T00:26:59;11.48;;;3.22;;
13493;SDS011;6819;50.886;4.332;2023-04-25T00:29:25;11.27;;;3.80;;
13493;SDS011;6819;50.886;4.332;2023-04-25T00:31:51;17.38;;;3.92;;
13493;SDS011;6819;50.886;4.332;2023-04-25T00:34:17;12.02;;;3.13;;
13493;SDS011;6819;50.886;4.332;2023-04-25T00:36:43;17.15;;;3.55;;
13493;SDS011;6819;50.886;4.332;2023-04-25T00:39:09;15.65;;;3.67;;
13493;SDS011;6819;50.886;4.332;2023-04-25T00:41:36;7.72;;;3.00;;
13493;SDS011;6819;50.886;4.332;2023-04-25T00:44:03;14.98;;;3.42;;
13493;SDS011;6819;50.886;4.332;2023-04-25T00:46:29;10.63;;;3.08;;
13493;SDS011;6819;50.886;4.332;2023-04-25T00:48:56;17.55;;;3.50;;
13493;SDS011;6819;50.886;4.332;2023-04-25T00:51:22;15.80;;;3.83;;
13493;SDS011;6819;50.886;4.332;2023-04-25T00:53:50;21.13;;;4.00;;
13493;SDS011;6819;50.886;4.332;2023-04-25T00:56:16;19.23;;;3.75;;
13493;SDS011;6819;50.886;4.332;2023-04-25T00:58:42;12.43;;;3.33;;
13493;SDS011;6819;50.886;4.332;2023-04-25T01:01:08;12.88;;;3.17;;
13493;SDS011;6819;50.886;4.332;2023-04-25T01:03:34;10.13;;;3.22;;
13493;SDS011;6819;50.886;4.332;2023-04-25T01:06:07;13.57;;;3.15;;
13493;SDS011;6819;50.886;4.332;2023-04-25T01:08:33;14.68;;;3.60;;
13493;SDS011;6819;50.886;4.332;2023-04-25T01:11:00;14.35;;;3.75;;
13493;SDS011;6819;50.886;4.332;2023-04-25T01:13:26;13.57;;;3.15;;
13493;SDS011;6819;50.886;4.332;2023-04-25T01:15:52;17.70;;;3.95;;
13493;SDS011;6819;50.886;4.332;2023-04-25T01:18:18;10.88;;;3.15;;
13493;SDS011;6819;50.886;4.332;2023-04-25T01:20:46;12.23;;;3.70;;
13493;SDS011;6819;50.886;4.332;2023-04-25T01:23:12;16.55;;;3.20;;
13493;SDS011;6819;50.886;4.332;2023-04-25T01:25:39;15.90;;;4.13;;
13493;SDS011;6819;50.886;4.332;2023-04-25T01:28:06;10.82;;;3.75;;
13493;SDS011;6819;50.886;4.332;2023-04-25T01:30:32;12.50;;;3.47;;
13493;SDS011;6819;50.886;4.332;2023-04-25T01:32:58;16.52;;;4.28;;
13493;SDS011;6819;50.886;4.332;2023-04-25T01:35:26;13.05;;;3.17;;
13493;SDS011;6819;50.886;4.332;2023-04-25T01:37:52;17.88;;;3.53;;
13493;SDS011;6819;50.886;4.332;2023-04-25T01:40:18;17.90;;;4.13;;
13493;SDS011;6819;50.886;4.332;2023-04-25T01:42:46;21.20;;;4.30;;
13493;SDS011;6819;50.886;4.332;2023-04-25T01:45:12;13.45;;;3.42;;
13493;SDS011;6819;50.886;4.332;2023-04-25T01:47:38;9.40;;;3.17;;
13493;SDS011;6819;50.886;4.332;2023-04-25T01:50:06;16.83;;;3.70;;
13493;SDS011;6819;50.886;4.332;2023-04-25T01:52:33;15.45;;;3.88;;
13493;SDS011;6819;50.886;4.332;2023-04-25T01:55:02;14.40;;;3.63;;
13493;SDS011;6819;50.886;4.332;2023-04-25T01:57:28;20.70;;;3.63;;
13493;SDS011;6819;50.886;4.332;2023-04-25T01:59:58;12.23;;;4.15;;
13493;SDS011;6819;50.886;4.332;2023-04-25T02:02:25;9.05;;;3.45;;
13493;SDS011;6819;50.886;4.332;2023-04-25T02:04:51;8.77;;;3.70;;
13493;SDS011;6819;50.886;4.332;2023-04-25T02:07:19;19.90;;;3.50;;
13493;SDS011;6819;50.886;4.332;2023-04-25T02:09:45;10.73;;;3.55;;
13493;SDS011;6819;50.886;4.332;2023-04-25T02:12:11;10.90;;;3.65;;
13493;SDS011;6819;50.886;4.332;2023-04-25T02:14:37;17.33;;;3.75;;
13493;SDS011;6819;50.886;4.332;2023-04-25T02:17:03;15.85;;;3.95;;
13493;SDS011;6819;50.886;4.332;2023-04-25T02:19:30;15.18;;;4.20;;
13493;SDS011;6819;50.886;4.332;2023-04-25T02:21:56;17.92;;;4.38;;
13493;SDS011;6819;50.886;4.332;2023-04-25T02:24:23;13.23;;;3.85;;
13493;SDS011;6819;50.886;4.332;2023-04-25T02:26:49;13.25;;;3.45;;
13493;SDS011;6819;50.886;4.332;2023-04-25T02:29:15;20.27;;;3.53;;
13493;SDS011;6819;50.886;4.332;2023-04-25T02:31:41;12.93;;;3.55;;
13493;SDS011;6819;50.886;4.332;2023-04-25T02:34:07;16.90;;;3.72;;
13493;SDS011;6819;50.886;4.332;2023-04-25T02:36:33;13.73;;;3.50;;
13493;SDS011;6819;50.886;4.332;2023-04-25T02:39:00;16.20;;;3.83;;
13493;SDS011;6819;50.886;4.332;2023-04-25T02:41:27;14.00;;;3.40;;
13493;SDS011;6819;50.886;4.332;2023-04-25T02:43:54;17.63;;;4.22;;
13493;SDS011;6819;50.886;4.332;2023-04-25T02:46:20;15.02;;;3.65;;
13493;SDS011;6819;50.886;4.332;2023-04-25T02:48:46;14.40;;;3.90;;
13493;SDS011;6819;50.886;4.332;2023-04-25T02:51:12;12.10;;;3.88;;
13493;SDS011;6819;50.886;4.332;2023-04-25T02:53:38;20.75;;;4.28;;
13493;SDS011;6819;50.886;4.332;2023-04-25T02:56:04;12.48;;;3.90;;
13493;SDS011;6819;50.886;4.332;2023-04-25T02:58:31;14.05;;;3.65;;
13493;SDS011;6819;50.886;4.332;2023-04-25T03:00:57;16.63;;;3.50;;
13493;SDS011;6819;50.886;4.332;2023-04-25T03:03:23;15.90;;;3.55;;
13493;SDS011;6819;50.886;4.332;2023-04-25T03:05:49;15.43;;;4.05;;
13493;SDS011;6819;50.886;4.332;2023-04-25T03:08:16;11.98;;;3.83;;
13493;SDS011;6819;50.886;4.332;2023-04-25T03:10:42;15.85;;;3.85;;
13493;SDS011;6819;50.886;4.332;2023-04-25T03:13:08;16.88;;;3.90;;
13493;SDS011;6819;50.886;4.332;2023-04-25T03:15:34;17.95;;;3.60;;
13493;SDS011;6819;50.886;4.332;2023-04-25T03:18:01;14.65;;;4.90;;
13493;SDS011;6819;50.886;4.332;2023-04-25T03:20:27;18.80;;;3.72;;
13493;SDS011;6819;50.886;4.332;2023-04-25T03:22:53;17.73;;;4.50;;
13493;SDS011;6819;50.886;4.332;2023-04-25T03:25:19;20.48;;;3.67;;
13493;SDS011;6819;50.886;4.332;2023-04-25T03:27:45;15.75;;;3.55;;
13493;SDS011;6819;50.886;4.332;2023-04-25T03:30:11;10.82;;;3.50;;
13493;SDS011;6819;50.886;4.332;2023-04-25T03:32:37;14.65;;;3.40;;
13493;SDS011;6819;50.886;4.332;2023-04-25T03:35:03;16.33;;;3.58;;
13493;SDS011;6819;50.886;4.332;2023-04-25T03:37:30;13.70;;;3.75;;
13493;SDS011;6819;50.886;4.332;2023-04-25T03:39:56;15.10;;;3.65;;
13493;SDS011;6819;50.886;4.332;2023-04-25T03:42:22;18.20;;;3.95;;
13493;SDS011;6819;50.886;4.332;2023-04-25T03:44:49;11.85;;;3.10;;
13493;SDS011;6819;50.886;4.332;2023-04-25T03:47:15;17.55;;;3.83;;
13493;SDS011;6819;50.886;4.332;2023-04-25T03:49:41;18.23;;;3.63;;
13493;SDS011;6819;50.886;4.332;2023-04-25T03:52:10;19.58;;;3.58;;
13493;SDS011;6819;50.886;4.332;2023-04-25T03:54:36;18.00;;;3.40;;
13493;SDS011;6819;50.886;4.332;2023-04-25T03:57:02;17.42;;;3.08;;
13493;SDS011;6819;50.886;4.332;2023-04-25T03:59:28;18.00;;;3.20;;
13493;SDS011;6819;50.886;4.332;2023-04-25T04:01:54;18.00;;;3.33;;
13493;SDS011;6819;50.886;4.332;2023-04-25T04:04:20;17.27;;;3.40;;
13493;SDS011;6819;50.886;4.332;2023-04-25T04:06:46;11.73;;;3.05;;
13493;SDS011;6819;50.886;4.332;2023-04-25T04:09:12;13.90;;;3.30;;
13493;SDS011;6819;50.886;4.332;2023-04-25T04:11:38;16.75;;;3.50;;
13493;SDS011;6819;50.886;4.332;2023-04-25T04:14:05;11.38;;;2.72;;
13493;SDS011;6819;50.886;4.332;2023-04-25T04:16:32;12.43;;;3.63;;
13493;SDS011;6819;50.886;4.332;2023-04-25T04:18:58;14.18;;;2.92;;
13493;SDS011;6819;50.886;4.332;2023-04-25T04:21:24;12.77;;;3.13;;
13493;SDS011;6819;50.886;4.332;2023-04-25T04:23:51;17.30;;;3.53;;
13493;SDS011;6819;50.886;4.332;2023-04-25T04:26:17;14.63;;;3.17;;
13493;SDS011;6819;50.886;4.332;2023-04-25T04:28:43;14.43;;;3.08;;
13493;SDS011;6819;50.886;4.332;2023-04-25T04:31:10;18.00;;;3.20;;
13493;SDS011;6819;50.886;4.332;2023-04-25T04:33:36;12.98;;;2.95;;
13493;SDS011;6819;50.886;4.332;2023-04-25T04:36:03;11.70;;;3.50;;
13493;SDS011;6819;50.886;4.332;2023-04-25T04:38:29;15.43;;;2.92;;
13493;SDS011;6819;50.886;4.332;2023-04-25T04:40:55;12.95;;;2.83;;
13493;SDS011;6819;50.886;4.332;2023-04-25T04:43:22;16.17;;;3.50;;
13493;SDS011;6819;50.886;4.332;2023-04-25T04:45:48;13.55;;;3.22;;
13493;SDS011;6819;50.886;4.332;2023-04-25T04:48:15;16.02;;;3.47;;
13493;SDS011;6819;50.886;4.332;2023-04-25T04:50:42;11.23;;;3.08;;
13493;SDS011;6819;50.886;4.332;2023-04-25T04:53:10;9.15;;;3.92;;
13493;SDS011;6819;50.886;4.332;2023-04-25T04:55:36;11.75;;;3.17;;
13493;SDS011;6819;50.886;4.332;2023-04-25T04:58:02;11.48;;;3.20;;
13493;SDS011;6819;50.886;4.332;2023-04-25T05:00:29;11.18;;;3.58;;
13493;SDS011;6819;50.886;4.332;2023-04-25T05:02:55;13.40;;;3.50;;
13493;SDS011;6819;50.886;4.332;2023-04-25T05:05:21;10.60;;;3.17;;
13493;SDS011;6819;50.886;4.332;2023-04-25T05:07:47;14.48;;;2.75;;
13493;SDS011;6819;50.886;4.332;2023-04-25T05:10:13;11.98;;;2.97;;
13493;SDS011;6819;50.886;4.332;2023-04-25T05:12:40;14.27;;;3.33;;
13493;SDS011;6819;50.886;4.332;2023-04-25T05:15:06;12.52;;;3.70;;
13493;SDS011;6819;50.886;4.332;2023-04-25T05:17:32;13.73;;;3.45;;
13493;SDS011;6819;50.886;4.332;2023-04-25T05:19:58;13.75;;;3.25;;
13493;SDS011;6819;50.886;4.332;2023-04-25T05:22:24;12.27;;;3.85;;
13493;SDS011;6819;50.886;4.332;2023-04-25T05:24:51;9.23;;;3.70;;
13493;SDS011;6819;50.886;4.332;2023-04-25T05:27:17;16.98;;;3.08;;
13493;SDS011;6819;50.886;4.332;2023-04-25T05:29:44;13.07;;;3.35;;
13493;SDS011;6819;50.886;4.332;2023-04-25T05:32:10;11.70;;;3.60;;
13493;SDS011;6819;50.886;4.332;2023-04-25T05:34:36;13.80;;;3.47;;
13493;SDS011;6819;50.886;4.332;2023-04-25T05:37:02;11.90;;;3.13;;
13493;SDS011;6819;50.886;4.332;2023-04-25T05:39:28;12.05;;;3.40;;
13493;SDS011;6819;50.886;4.332;2023-04-25T05:41:54;12.27;;;3.90;;
13493;SDS011;6819;50.886;4.332;2023-04-25T05:44:20;10.13;;;3.10;;
13493;SDS011;6819;50.886;4.332;2023-04-25T05:46:46;10.93;;;4.05;;
13493;SDS011;6819;50.886;4.332;2023-04-25T05:49:13;11.60;;;3.88;;
13493;SDS011;6819;50.886;4.332;2023-04-25T05:51:39;12.55;;;3.95;;
13493;SDS011;6819;50.886;4.332;2023-04-25T05:54:05;13.25;;;3.17;;
13493;SDS011;6819;50.886;4.332;2023-04-25T05:56:31;12.20;;;3.35;;
13493;SDS011;6819;50.886;4.332;2023-04-25T05:58:57;17.15;;;3.17;;
13493;SDS011;6819;50.886;4.332;2023-04-25T06:01:23;10.43;;;3.17;;
13493;SDS011;6819;50.886;4.332;2023-04-25T06:03:49;13.60;;;3.55;;
13493;SDS011;6819;50.886;4.332;2023-04-25T06:06:17;12.15;;;2.92;;
13493;SDS011;6819;50.886;4.332;2023-04-25T06:08:43;21.20;;;4.28;;
13493;SDS011;6819;50.886;4.332;2023-04-25T06:11:10;10.48;;;3.47;;
13493;SDS011;6819;50.886;4.332;2023-04-25T06:13:36;13.00;;;3.53;;
13493;SDS011;6819;50.886;4.332;2023-04-25T06:16:02;10.50;;;3.20;;
13493;SDS011;6819;50.886;4.332;2023-04-25T06:18:28;11.50;;;3.08;;
13493;SDS011;6819;50.886;4.332;2023-04-25T06:20:54;12.15;;;3.05;;
13493;SDS011;6819;50.886;4.332;2023-04-25T06:23:20;10.32;;;3.10;;
13493;SDS011;6819;50.886;4.332;2023-04-25T06:25:46;15.10;;;3.05;;
13493;SDS011;6819;50.886;4.332;2023-04-25T06:28:12;13.57;;;3.88;;
13493;SDS011;6819;50.886;4.332;2023-04-25T06:30:38;18.17;;;4.15;;
13493;SDS011;6819;50.886;4.332;2023-04-25T06:33:04;10.60;;;2.80;;
13493;SDS011;6819;50.886;4.332;2023-04-25T06:35:30;9.40;;;2.75;;
13493;SDS011;6819;50.886;4.332;2023-04-25T06:37:56;9.43;;;3.42;;
13493;SDS011;6819;50.886;4.332;2023-04-25T06:40:22;10.65;;;3.28;;
13493;SDS011;6819;50.886;4.332;2023-04-25T06:42:48;13.40;;;3.40;;
13493;SDS011;6819;50.886;4.332;2023-04-25T06:45:14;10.55;;;2.90;;
13493;SDS011;6819;50.886;4.332;2023-04-25T06:47:40;8.63;;;2.70;;
13493;SDS011;6819;50.886;4.332;2023-04-25T06:50:06;10.00;;;3.25;;
13493;SDS011;6819;50.886;4.332;2023-04-25T06:52:33;6.88;;;2.65;;
13493;SDS011;6819;50.886;4.332;2023-04-25T06:54:59;11.95;;;3.00;;
13493;SDS011;6819;50.886;4.332;2023-04-25T06:57:25;12.20;;;3.17;;
13493;SDS011;6819;50.886;4.332;2023-04-25T06:59:51;11.00;;;2.70;;
13493;SDS011;6819;50.886;4.332;2023-04-25T07:02:17;15.75;;;3.42;;
13493;SDS011;6819;50.886;4.332;2023-04-25T07:04:43;10.25;;;2.67;;
13493;SDS011;6819;50.886;4.332;2023-04-25T07:07:10;9.77;;;3.10;;
13493;SDS011;6819;50.886;4.332;2023-04-25T07:09:36;11.80;;;2.92;;
13493;SDS011;6819;50.886;4.332;2023-04-25T07:12:03;12.35;;;2.75;;
13493;SDS011;6819;50.886;4.332;2023-04-25T07:14:29;12.60;;;2.53;;
13493;SDS011;6819;50.886;4.332;2023-04-25T07:16:55;12.48;;;3.22;;
13493;SDS011;6819;50.886;4.332;2023-04-25T07:19:22;16.58;;;3.70;;
13493;SDS011;6819;50.886;4.332;2023-04-25T07:21:51;10.45;;;3.00;;
13493;SDS011;6819;50.886;4.332;2023-04-25T07:24:17;9.63;;;2.28;;
13493;SDS011;6819;50.886;4.332;2023-04-25T07:26:43;16.98;;;2.70;;
13493;SDS011;6819;50.886;4.332;2023-04-25T07:29:09;6.18;;;2.30;;
13493;SDS011;6819;50.886;4.332;2023-04-25T07:31:35;7.82;;;2.35;;
13493;SDS011;6819;50.886;4.332;2023-04-25T07:34:01;7.85;;;2.42;;
13493;SDS011;6819;50.886;4.332;2023-04-25T07:36:28;10.60;;;2.50;;
13493;SDS011;6819;50.886;4.332;2023-04-25T07:38:54;10.30;;;2.25;;
13493;SDS011;6819;50.886;4.332;2023-04-25T07:41:20;8.73;;;2.00;;
13493;SDS011;6819;50.886;4.332;2023-04-25T07:43:46;8.02;;;1.95;;
13493;SDS011;6819;50.886;4.332;2023-04-25T07:46:12;10.23;;;2.50;;
13493;SDS011;6819;50.886;4.332;2023-04-25T07:48:38;8.57;;;2.08;;
13493;SDS011;6819;50.886;4.332;2023-04-25T07:51:04;14.70;;;2.30;;
13493;SDS011;6819;50.886;4.332;2023-04-25T07:53:30;18.40;;;2.50;;
13493;SDS011;6819;50.886;4.332;2023-04-25T07:55:57;10.68;;;2.15;;
13493;SDS011;6819;50.886;4.332;2023-04-25T07:58:23;9.70;;;2.22;;
13493;SDS011;6819;50.886;4.332;2023-04-25T08:00:49;10.52;;;2.22;;
13493;SDS011;6819;50.886;4.332;2023-04-25T08:03:15;10.25;;;2.33;;
13493;SDS011;6819;50.886;4.332;2023-04-25T08:05:41;8.40;;;2.10;;
13493;SDS011;6819;50.886;4.332;2023-04-25T08:08:07;11.43;;;2.30;;
13493;SDS011;6819;50.886;4.332;2023-04-25T08:10:33;7.25;;;2.00;;
13493;SDS011;6819;50.886;4.332;2023-04-25T08:12:59;14.02;;;2.25;;
13493;SDS011;6819;50.886;4.332;2023-04-25T08:15:26;8.38;;;2.05;;
13493;SDS011;6819;50.886;4.332;2023-04-25T08:17:52;14.43;;;2.22;;
13493;SDS011;6819;50.886;4.332;2023-04-25T08:20:18;12.73;;;2.45;;
13493;SDS011;6819;50.886;4.332;2023-04-25T08:22:44;10.52;;;3.35;;
13493;SDS011;6819;50.886;4.332;2023-04-25T08:25:10;7.18;;;2.22;;
13493;SDS011;6819;50.886;4.332;2023-04-25T08:27:36;12.20;;;2.92;;
13493;SDS011;6819;50.886;4.332;2023-04-25T08:30:02;7.82;;;2.53;;
13493;SDS011;6819;50.886;4.332;2023-04-25T08:32:28;10.30;;;2.05;;
13493;SDS011;6819;50.886;4.332;2023-04-25T08:34:54;9.45;;;1.80;;
13493;SDS011;6819;50.886;4.332;2023-04-25T08:37:21;10.00;;;2.30;;
13493;SDS011;6819;50.886;4.332;2023-04-25T08:39:47;8.93;;;2.38;;
13493;SDS011;6819;50.886;4.332;2023-04-25T08:42:13;9.43;;;2.78;;
13493;SDS011;6819;50.886;4.332;2023-04-25T08:44:40;11.50;;;2.10;;
13493;SDS011;6819;50.886;4.332;2023-04-25T08:47:06;8.20;;;2.00;;
13493;SDS011;6819;50.886;4.332;2023-04-25T08:49:32;8.63;;;2.42;;
13493;SDS011;6819;50.886;4.332;2023-04-25T08:52:02;7.05;;;1.65;;
13493;SDS011;6819;50.886;4.332;2023-04-25T08:54:31;8.43;;;1.65;;
13493;SDS011;6819;50.886;4.332;2023-04-25T08:56:57;8.20;;;2.15;;
13493;SDS011;6819;50.886;4.332;2023-04-25T08:59:29;10.43;;;2.15;;
13493;SDS011;6819;50.886;4.332;2023-04-25T09:01:55;8.93;;;2.13;;
13493;SDS011;6819;50.886;4.332;2023-04-25T09:04:22;6.68;;;1.63;;
13493;SDS011;6819;50.886;4.332;2023-04-25T09:06:48;5.38;;;1.60;;
13493;SDS011;6819;50.886;4.332;2023-04-25T09:09:14;11.35;;;2.03;;
13493;SDS011;6819;50.886;4.332;2023-04-25T09:11:40;11.48;;;1.90;;
13493;SDS011;6819;50.886;4.332;2023-04-25T09:14:13;12.95;;;2.05;;
13493;SDS011;6819;50.886;4.332;2023-04-25T09:19:21;13.27;;;2.00;;
13493;SDS011;6819;50.886;4.332;2023-04-25T09:21:51;11.32;;;2.00;;
13493;SDS011;6819;50.886;4.332;2023-04-25T09:24:42;7.97;;;2.70;;
13493;SDS011;6819;50.886;4.332;2023-04-25T09:27:10;7.97;;;2.13;;
13493;SDS011;6819;50.886;4.332;2023-04-25T09:29:37;7.20;;;1.52;;
13493;SDS011;6819;50.886;4.332;2023-04-25T09:32:19;4.65;;;1.50;;
13493;SDS011;6819;50.886;4.332;2023-04-25T09:34:47;10.95;;;1.83;;
13493;SDS011;6819;50.886;4.332;2023-04-25T09:37:18;5.65;;;1.60;;
13493;SDS011;6819;50.886;4.332;2023-04-25T09:39:45;8.05;;;2.10;;
13493;SDS011;6819;50.886;4.332;2023-04-25T09:42:12;8.88;;;3.17;;
13493;SDS011;6819;50.886;4.332;2023-04-25T09:44:43;10.02;;;2.05;;
13493;SDS011;6819;50.886;4.332;2023-04-25T09:47:10;3.13;;;1.50;;
13493;SDS011;6819;50.886;4.332;2023-04-25T09:49:38;7.07;;;1.80;;
13493;SDS011;6819;50.886;4.332;2023-04-25T09:52:06;5.10;;;1.48;;
13493;SDS011;6819;50.886;4.332;2023-04-25T09:54:32;3.55;;;1.30;;
13493;SDS011;6819;50.886;4.332;2023-04-25T09:56:58;3.00;;;1.45;;
13493;SDS011;6819;50.886;4.332;2023-04-25T09:59:28;4.63;;;1.30;;
13493;SDS011;6819;50.886;4.332;2023-04-25T10:01:56;3.67;;;1.20;;
13493;SDS011;6819;50.886;4.332;2023-04-25T10:04:24;9.27;;;1.95;;
13493;SDS011;6819;50.886;4.332;2023-04-25T10:06:51;6.07;;;1.65;;
13493;SDS011;6819;50.886;4.332;2023-04-25T10:09:19;5.75;;;1.70;;
13493;SDS011;6819;50.886;4.332;2023-04-25T10:11:46;6.90;;;1.50;;
13493;SDS011;6819;50.886;4.332;2023-04-25T10:14:15;5.97;;;1.63;;
13493;SDS011;6819;50.886;4.332;2023-04-25T10:16:42;4.10;;;1.45;;
13493;SDS011;6819;50.886;4.332;2023-04-25T10:19:09;6.90;;;1.75;;
13493;SDS011;6819;50.886;4.332;2023-04-25T10:21:36;3.95;;;1.60;;
13493;SDS011;6819;50.886;4.332;2023-04-25T10:24:06;4.35;;;1.38;;
13493;SDS011;6819;50.886;4.332;2023-04-25T10:26:32;4.97;;;1.40;;
13493;SDS011;6819;50.886;4.332;2023-04-25T10:29:02;4.05;;;1.25;;
13493;SDS011;6819;50.886;4.332;2023-04-25T10:31:31;8.00;;;1.35;;
13493;SDS011;6819;50.886;4.332;2023-04-25T10:33:59;6.85;;;1.40;;
13493;SDS011;6819;50.886;4.332;2023-04-25T10:36:26;5.97;;;1.73;;
13493;SDS011;6819;50.886;4.332;2023-04-25T10:38:58;7.25;;;1.60;;
13493;SDS011;6819;50.886;4.332;2023-04-25T10:41:31;4.25;;;1.58;;
13493;SDS011;6819;50.886;4.332;2023-04-25T10:44:10;8.10;;;1.65;;
13493;SDS011;6819;50.886;4.332;2023-04-25T10:46:36;7.25;;;1.75;;
13493;SDS011;6819;50.886;4.332;2023-04-25T10:49:03;7.32;;;1.23;;
13493;SDS011;6819;50.886;4.332;2023-04-25T10:51:32;4.85;;;1.40;;
13493;SDS011;6819;50.886;4.332;2023-04-25T10:54:02;6.82;;;1.58;;
13493;SDS011;6819;50.886;4.332;2023-04-25T10:56:29;12.13;;;2.97;;
13493;SDS011;6819;50.886;4.332;2023-04-25T11:01:38;10.75;;;1.50;;
13493;SDS011;6819;50.886;4.332;2023-04-25T11:04:05;14.70;;;1.83;;
13493;SDS011;6819;50.886;4.332;2023-04-25T11:08:57;7.88;;;1.38;;
13493;SDS011;6819;50.886;4.332;2023-04-25T11:11:26;8.38;;;1.50;;
13493;SDS011;6819;50.886;4.332;2023-04-25T11:13:55;7.13;;;1.60;;
13493;SDS011;6819;50.886;4.332;2023-04-25T11:16:23;6.32;;;2.00;;
13493;SDS011;6819;50.886;4.332;2023-04-25T11:18:52;6.95;;;1.90;;
13493;SDS011;6819;50.886;4.332;2023-04-25T11:21:18;8.30;;;1.50;;
13493;SDS011;6819;50.886;4.332;2023-04-25T11:23:45;7.43;;;1.58;;
13493;SDS011;6819;50.886;4.332;2023-04-25T11:26:12;6.85;;;1.52;;
13493;SDS011;6819;50.886;4.332;2023-04-25T11:28:39;4.82;;;1.55;;
13493;SDS011;6819;50.886;4.332;2023-04-25T11:31:06;4.43;;;1.50;;
13493;SDS011;6819;50.886;4.332;2023-04-25T11:33:32;3.63;;;1.48;;
13493;SDS011;6819;50.886;4.332;2023-04-25T11:35:58;6.45;;;1.50;;
13493;SDS011;6819;50.886;4.332;2023-04-25T11:38:24;4.10;;;1.40;;
13493;SDS011;6819;50.886;4.332;2023-04-25T11:40:53;3.22;;;1.30;;
13493;SDS011;6819;50.886;4.332;2023-04-25T11:43:20;5.22;;;1.45;;
13493;SDS011;6819;50.886;4.332;2023-04-25T11:45:48;4.15;;;1.30;;
13493;SDS011;6819;50.886;4.332;2023-04-25T11:48:14;4.43;;;1.30;;
13493;SDS011;6819;50.886;4.332;2023-04-25T11:50:40;5.95;;;1.45;;
13493;SDS011;6819;50.886;4.332;2023-04-25T11:53:07;5.28;;;1.50;;
13493;SDS011;6819;50.886;4.332;2023-04-25T11:55:33;6.80;;;1.63;;
13493;SDS011;6819;50.886;4.332;2023-04-25T11:58:01;6.43;;;1.55;;
13493;SDS011;6819;50.886;4.332;2023-04-25T12:00:27;6.53;;;1.40;;
13493;SDS011;6819;50.886;4.332;2023-04-25T12:02:54;5.40;;;1.73;;
13493;SDS011;6819;50.886;4.332;2023-04-25T12:05:23;5.20;;;1.52;;
13493;SDS011;6819;50.886;4.332;2023-04-25T12:07:50;5.90;;;1.38;;
13493;SDS011;6819;50.886;4.332;2023-04-25T12:10:17;2.90;;;1.25;;
13493;SDS011;6819;50.886;4.332;2023-04-25T12:12:44;3.55;;;1.20;;
13493;SDS011;6819;50.886;4.332;2023-04-25T12:15:14;4.82;;;1.40;;
13493;SDS011;6819;50.886;4.332;2023-04-25T12:17:44;4.55;;;1.25;;
13493;SDS011;6819;50.886;4.332;2023-04-25T12:20:12;4.88;;;1.30;;
13493;SDS011;6819;50.886;4.332;2023-04-25T12:22:40;4.20;;;1.20;;
13493;SDS011;6819;50.886;4.332;2023-04-25T12:25:09;4.18;;;1.00;;
13493;SDS011;6819;50.886;4.332;2023-04-25T12:27:36;2.80;;;1.23;;
13493;SDS011;6819;50.886;4.332;2023-04-25T12:30:02;6.68;;;1.10;;
13493;SDS011;6819;50.886;4.332;2023-04-25T12:32:28;4.72;;;1.10;;
13493;SDS011;6819;50.886;4.332;2023-04-25T12:34:54;4.13;;;1.13;;
13493;SDS011;6819;50.886;4.332;2023-04-25T12:37:20;2.47;;;1.13;;
13493;SDS011;6819;50.886;4.332;2023-04-25T12:39:47;3.03;;;1.20;;
13493;SDS011;6819;50.886;4.332;2023-04-25T12:42:13;4.80;;;1.58;;
13493;SDS011;6819;50.886;4.332;2023-04-25T12:44:39;4.80;;;1.45;;
13493;SDS011;6819;50.886;4.332;2023-04-25T12:47:05;11.10;;;1.40;;
13493;SDS011;6819;50.886;4.332;2023-04-25T12:49:31;7.25;;;1.42;;
13493;SDS011;6819;50.886;4.332;2023-04-25T12:51:58;6.78;;;1.30;;
13493;SDS011;6819;50.886;4.332;2023-04-25T12:54:24;6.10;;;1.77;;
13493;SDS011;6819;50.886;4.332;2023-04-25T12:56:50;4.15;;;1.50;;
13493;SDS011;6819;50.886;4.332;2023-04-25T12:59:17;5.18;;;1.27;;
13493;SDS011;6819;50.886;4.332;2023-04-25T13:01:44;5.05;;;1.48;;
13493;SDS011;6819;50.886;4.332;2023-04-25T13:04:10;4.15;;;1.55;;
13493;SDS011;6819;50.886;4.332;2023-04-25T13:06:36;7.07;;;1.50;;
13493;SDS011;6819;50.886;4.332;2023-04-25T13:09:03;3.95;;;1.30;;
13493;SDS011;6819;50.886;4.332;2023-04-25T13:11:29;5.75;;;1.58;;
13493;SDS011;6819;50.886;4.332;2023-04-25T13:13:56;4.45;;;1.50;;
13493;SDS011;6819;50.886;4.332;2023-04-25T13:16:22;5.55;;;1.23;;
13493;SDS011;6819;50.886;4.332;2023-04-25T13:18:48;4.80;;;1.45;;
13493;SDS011;6819;50.886;4.332;2023-04-25T13:21:14;2.80;;;1.20;;
13493;SDS011;6819;50.886;4.332;2023-04-25T13:23:40;4.90;;;1.50;;
13493;SDS011;6819;50.886;4.332;2023-04-25T13:26:08;8.07;;;1.23;;
13493;SDS011;6819;50.886;4.332;2023-04-25T13:28:34;4.25;;;1.30;;
13493;SDS011;6819;50.886;4.332;2023-04-25T13:31:00;4.20;;;1.25;;
13493;SDS011;6819;50.886;4.332;2023-04-25T13:33:26;4.20;;;1.20;;
13493;SDS011;6819;50.886;4.332;2023-04-25T13:35:52;1.90;;;1.00;;
13493;SDS011;6819;50.886;4.332;2023-04-25T13:38:25;6.65;;;1.30;;
13493;SDS011;6819;50.886;4.332;2023-04-25T13:40:51;2.30;;;1.08;;
13493;SDS011;6819;50.886;4.332;2023-04-25T13:43:20;2.60;;;1.10;;
13493;SDS011;6819;50.886;4.332;2023-04-25T13:45:49;5.18;;;1.48;;
13493;SDS011;6819;50.886;4.332;2023-04-25T13:48:16;4.18;;;1.42;;
13493;SDS011;6819;50.886;4.332;2023-04-25T13:50:42;6.53;;;1.48;;
13493;SDS011;6819;50.886;4.332;2023-04-25T13:53:08;4.90;;;1.30;;
13493;SDS011;6819;50.886;4.332;2023-04-25T13:55:35;7.60;;;1.73;;
13493;SDS011;6819;50.886;4.332;2023-04-25T13:58:02;4.75;;;1.40;;
13493;SDS011;6819;50.886;4.332;2023-04-25T14:00:32;4.40;;;1.50;;
13493;SDS011;6819;50.886;4.332;2023-04-25T14:02:58;8.55;;;1.48;;
13493;SDS011;6819;50.886;4.332;2023-04-25T14:05:24;4.60;;;1.40;;
13493;SDS011;6819;50.886;4.332;2023-04-25T14:07:50;6.45;;;1.40;;
13493;SDS011;6819;50.886;4.332;2023-04-25T14:10:16;4.50;;;1.20;;
13493;SDS011;6819;50.886;4.332;2023-04-25T14:12:42;6.10;;;1.20;;
13493;SDS011;6819;50.886;4.332;2023-04-25T14:15:09;4.75;;;1.35;;
13493;SDS011;6819;50.886;4.332;2023-04-25T14:17:35;4.10;;;1.17;;
13493;SDS011;6819;50.886;4.332;2023-04-25T14:20:02;3.83;;;1.30;;
13493;SDS011;6819;50.886;4.332;2023-04-25T14:22:30;3.47;;;1.25;;
13493;SDS011;6819;50.886;4.332;2023-04-25T14:24:56;3.60;;;1.50;;
13493;SDS011;6819;50.886;4.332;2023-04-25T14:27:23;4.45;;;1.45;;
13493;SDS011;6819;50.886;4.332;2023-04-25T14:29:49;2.22;;;1.10;;
13493;SDS011;6819;50.886;4.332;2023-04-25T14:32:16;3.95;;;1.45;;
13493;SDS011;6819;50.886;4.332;2023-04-25T14:34:42;6.05;;;1.45;;
13493;SDS011;6819;50.886;4.332;2023-04-25T14:37:08;7.10;;;1.50;;
13493;SDS011;6819;50.886;4.332;2023-04-25T14:39:34;3.53;;;1.25;;
13493;SDS011;6819;50.886;4.332;2023-04-25T14:42:01;2.03;;;1.15;;
13493;SDS011;6819;50.886;4.332;2023-04-25T14:44:27;4.03;;;1.65;;
13493;SDS011;6819;50.886;4.332;2023-04-25T14:46:53;4.57;;;1.35;;
13493;SDS011;6819;50.886;4.332;2023-04-25T14:49:20;8.77;;;1.33;;
13493;SDS011;6819;50.886;4.332;2023-04-25T14:51:46;3.70;;;1.65;;
13493;SDS011;6819;50.886;4.332;2023-04-25T14:54:12;5.25;;;1.40;;
13493;SDS011;6819;50.886;4.332;2023-04-25T14:56:38;7.03;;;1.75;;